Terminal Aerodrome Forecast
Issued by NWS

Home | Current Version | Previous Version | Text Only | Print | Product List | Glossary On
Versions: 1 2 3 4 5 6 7 8 9 10 11 12 13 14
833
FTUS46 KSEW 020520
TAFHQM
TAF
KHQM 020520Z 0206/0306 06006KT P6SM SKC
     FM021400 13006KT P6SM SKC
     FM022000 19010KT P6SM SKC
     FM030300 21005KT P6SM BKN250=

USA.gov is the U.S. government's official web portal to all federal, state and local government web resources and services.